sensor_id;sensor_type;location;lat;lon;timestamp;P1;durP1;ratioP1;P2;durP2;ratioP2
55364;SDS011;41245;45.384;20.390;2022-12-04T00:00:45;9.32;;;5.60;;
55364;SDS011;41245;45.384;20.390;2022-12-04T00:03:10;6.68;;;4.38;;
55364;SDS011;41245;45.384;20.390;2022-12-04T00:05:36;7.15;;;4.15;;
55364;SDS011;41245;45.384;20.390;2022-12-04T00:08:02;6.55;;;4.38;;
55364;SDS011;41245;45.384;20.390;2022-12-04T00:10:27;8.80;;;4.50;;
55364;SDS011;41245;45.384;20.390;2022-12-04T00:12:53;10.15;;;6.47;;
55364;SDS011;41245;45.384;20.390;2022-12-04T00:15:19;8.10;;;4.78;;
55364;SDS011;41245;45.384;20.390;2022-12-04T00:17:47;11.10;;;6.95;;
55364;SDS011;41245;45.384;20.390;2022-12-04T00:20:13;10.55;;;5.40;;
55364;SDS011;41245;45.384;20.390;2022-12-04T00:22:39;7.15;;;4.45;;
55364;SDS011;41245;45.384;20.390;2022-12-04T00:25:05;12.10;;;4.45;;
55364;SDS011;41245;45.384;20.390;2022-12-04T00:27:31;9.07;;;5.10;;
55364;SDS011;41245;45.384;20.390;2022-12-04T00:29:56;8.43;;;5.10;;
55364;SDS011;41245;45.384;20.390;2022-12-04T00:32:22;7.03;;;3.92;;
55364;SDS011;41245;45.384;20.390;2022-12-04T00:34:50;9.13;;;4.53;;
55364;SDS011;41245;45.384;20.390;2022-12-04T00:37:16;7.30;;;4.20;;
55364;SDS011;41245;45.384;20.390;2022-12-04T00:39:42;9.13;;;4.70;;
55364;SDS011;41245;45.384;20.390;2022-12-04T00:42:07;7.80;;;4.22;;
55364;SDS011;41245;45.384;20.390;2022-12-04T00:44:33;5.40;;;3.78;;
55364;SDS011;41245;45.384;20.390;2022-12-04T00:46:59;6.55;;;4.38;;
55364;SDS011;41245;45.384;20.390;2022-12-04T00:49:24;6.38;;;3.83;;
55364;SDS011;41245;45.384;20.390;2022-12-04T00:51:51;8.68;;;4.97;;
55364;SDS011;41245;45.384;20.390;2022-12-04T00:54:16;7.80;;;4.35;;
55364;SDS011;41245;45.384;20.390;2022-12-04T00:56:42;7.60;;;4.35;;
55364;SDS011;41245;45.384;20.390;2022-12-04T00:59:09;8.35;;;4.30;;
55364;SDS011;41245;45.384;20.390;2022-12-04T01:01:35;5.20;;;3.05;;
55364;SDS011;41245;45.384;20.390;2022-12-04T01:04:00;6.38;;;4.18;;
55364;SDS011;41245;45.384;20.390;2022-12-04T01:06:28;17.23;;;7.65;;
55364;SDS011;41245;45.384;20.390;2022-12-04T01:08:56;18.20;;;8.85;;
55364;SDS011;41245;45.384;20.390;2022-12-04T01:11:23;20.42;;;10.32;;
55364;SDS011;41245;45.384;20.390;2022-12-04T01:13:51;11.85;;;5.80;;
55364;SDS011;41245;45.384;20.390;2022-12-04T01:16:18;9.55;;;5.43;;
55364;SDS011;41245;45.384;20.390;2022-12-04T01:18:46;11.77;;;6.27;;
55364;SDS011;41245;45.384;20.390;2022-12-04T01:21:12;22.40;;;9.45;;
55364;SDS011;41245;45.384;20.390;2022-12-04T01:23:38;9.48;;;5.30;;
55364;SDS011;41245;45.384;20.390;2022-12-04T01:26:04;9.48;;;4.50;;
55364;SDS011;41245;45.384;20.390;2022-12-04T01:28:30;7.90;;;4.63;;
55364;SDS011;41245;45.384;20.390;2022-12-04T01:31:06;9.85;;;4.57;;
55364;SDS011;41245;45.384;20.390;2022-12-04T01:33:37;6.30;;;3.75;;
55364;SDS011;41245;45.384;20.390;2022-12-04T01:36:04;7.57;;;4.18;;
55364;SDS011;41245;45.384;20.390;2022-12-04T01:38:32;6.20;;;3.72;;
55364;SDS011;41245;45.384;20.390;2022-12-04T01:40:58;5.30;;;3.15;;
55364;SDS011;41245;45.384;20.390;2022-12-04T01:43:25;7.93;;;3.35;;
55364;SDS011;41245;45.384;20.390;2022-12-04T01:45:53;5.43;;;3.00;;
55364;SDS011;41245;45.384;20.390;2022-12-04T01:48:22;6.75;;;4.13;;
55364;SDS011;41245;45.384;20.390;2022-12-04T01:50:53;7.30;;;3.85;;
55364;SDS011;41245;45.384;20.390;2022-12-04T01:53:24;5.03;;;3.17;;
55364;SDS011;41245;45.384;20.390;2022-12-04T01:55:51;6.72;;;3.22;;
55364;SDS011;41245;45.384;20.390;2022-12-04T01:58:17;5.88;;;3.30;;
55364;SDS011;41245;45.384;20.390;2022-12-04T02:00:51;6.38;;;4.05;;
55364;SDS011;41245;45.384;20.390;2022-12-04T02:03:19;5.20;;;3.05;;
55364;SDS011;41245;45.384;20.390;2022-12-04T02:05:45;4.82;;;3.53;;
55364;SDS011;41245;45.384;20.390;2022-12-04T02:08:11;4.50;;;2.95;;
55364;SDS011;41245;45.384;20.390;2022-12-04T02:21:19;22.65;;;7.05;;
55364;SDS011;41245;45.384;20.390;2022-12-04T02:26:34;49.03;;;16.98;;
55364;SDS011;41245;45.384;20.390;2022-12-04T02:34:42;86.68;;;32.78;;
55364;SDS011;41245;45.384;20.390;2022-12-04T02:37:29;23.00;;;9.50;;
55364;SDS011;41245;45.384;20.390;2022-12-04T02:40:27;18.70;;;9.30;;
55364;SDS011;41245;45.384;20.390;2022-12-04T02:43:08;14.05;;;7.28;;
55364;SDS011;41245;45.384;20.390;2022-12-04T02:45:43;10.65;;;6.15;;
55364;SDS011;41245;45.384;20.390;2022-12-04T02:48:13;9.23;;;5.32;;
55364;SDS011;41245;45.384;20.390;2022-12-04T02:50:42;6.20;;;4.20;;
55364;SDS011;41245;45.384;20.390;2022-12-04T02:53:12;5.05;;;3.90;;
55364;SDS011;41245;45.384;20.390;2022-12-04T02:56:26;6.75;;;3.50;;
55364;SDS011;41245;45.384;20.390;2022-12-04T02:58:35;14.13;;;3.60;;
55364;SDS011;41245;45.384;20.390;2022-12-04T03:01:07;7.22;;;3.95;;
55364;SDS011;41245;45.384;20.390;2022-12-04T03:03:44;4.97;;;3.08;;
55364;SDS011;41245;45.384;20.390;2022-12-04T03:06:14;5.38;;;3.30;;
55364;SDS011;41245;45.384;20.390;2022-12-04T03:08:45;4.93;;;3.10;;
55364;SDS011;41245;45.384;20.390;2022-12-04T03:11:15;5.50;;;3.50;;
55364;SDS011;41245;45.384;20.390;2022-12-04T03:13:49;4.35;;;2.70;;
55364;SDS011;41245;45.384;20.390;2022-12-04T03:16:22;3.47;;;2.28;;
55364;SDS011;41245;45.384;20.390;2022-12-04T03:21:20;2.65;;;2.33;;
55364;SDS011;41245;45.384;20.390;2022-12-04T03:23:59;5.10;;;2.63;;
55364;SDS011;41245;45.384;20.390;2022-12-04T03:26:54;3.88;;;2.60;;
55364;SDS011;41245;45.384;20.390;2022-12-04T03:29:44;3.22;;;2.03;;
55364;SDS011;41245;45.384;20.390;2022-12-04T03:32:12;8.80;;;3.03;;
55364;SDS011;41245;45.384;20.390;2022-12-04T03:40:21;5.72;;;2.83;;
55364;SDS011;41245;45.384;20.390;2022-12-04T03:42:57;4.32;;;2.55;;
55364;SDS011;41245;45.384;20.390;2022-12-04T03:45:29;3.53;;;2.40;;
55364;SDS011;41245;45.384;20.390;2022-12-04T03:48:01;3.10;;;2.28;;
55364;SDS011;41245;45.384;20.390;2022-12-04T03:53:31;3.47;;;2.28;;
55364;SDS011;41245;45.384;20.390;2022-12-04T03:56:21;3.20;;;2.50;;
55364;SDS011;41245;45.384;20.390;2022-12-04T03:58:56;2.83;;;2.00;;
55364;SDS011;41245;45.384;20.390;2022-12-04T04:01:29;4.20;;;2.00;;
55364;SDS011;41245;45.384;20.390;2022-12-04T04:03:59;5.82;;;2.22;;
55364;SDS011;41245;45.384;20.390;2022-12-04T04:06:31;3.30;;;2.08;;
55364;SDS011;41245;45.384;20.390;2022-12-04T04:09:03;3.67;;;2.50;;
55364;SDS011;41245;45.384;20.390;2022-12-04T04:11:42;2.47;;;1.70;;
55364;SDS011;41245;45.384;20.390;2022-12-04T04:14:32;2.80;;;1.67;;
55364;SDS011;41245;45.384;20.390;2022-12-04T04:17:21;2.70;;;1.60;;
55364;SDS011;41245;45.384;20.390;2022-12-04T04:20:14;3.63;;;2.07;;
55364;SDS011;41245;45.384;20.390;2022-12-04T04:23:02;4.45;;;1.77;;
55364;SDS011;41245;45.384;20.390;2022-12-04T04:25:57;1.95;;;1.50;;
55364;SDS011;41245;45.384;20.390;2022-12-04T04:28:34;2.72;;;1.88;;
55364;SDS011;41245;45.384;20.390;2022-12-04T04:31:06;3.45;;;2.13;;
55364;SDS011;41245;45.384;20.390;2022-12-04T04:33:33;4.00;;;1.27;;
55364;SDS011;41245;45.384;20.390;2022-12-04T04:39:08;2.92;;;1.70;;
55364;SDS011;41245;45.384;20.390;2022-12-04T04:44:51;2.33;;;1.73;;
55364;SDS011;41245;45.384;20.390;2022-12-04T04:47:38;3.72;;;1.83;;
55364;SDS011;41245;45.384;20.390;2022-12-04T04:50:09;4.32;;;2.15;;
55364;SDS011;41245;45.384;20.390;2022-12-04T04:52:38;3.78;;;2.05;;
55364;SDS011;41245;45.384;20.390;2022-12-04T04:55:07;5.03;;;2.25;;
55364;SDS011;41245;45.384;20.390;2022-12-04T04:57:34;5.05;;;2.50;;
55364;SDS011;41245;45.384;20.390;2022-12-04T05:00:06;3.60;;;2.30;;
55364;SDS011;41245;45.384;20.390;2022-12-04T05:02:35;2.88;;;1.80;;
55364;SDS011;41245;45.384;20.390;2022-12-04T05:05:02;3.00;;;2.30;;
55364;SDS011;41245;45.384;20.390;2022-12-04T05:07:28;5.78;;;2.13;;
55364;SDS011;41245;45.384;20.390;2022-12-04T05:09:54;8.30;;;2.15;;
55364;SDS011;41245;45.384;20.390;2022-12-04T05:12:19;3.35;;;1.80;;
55364;SDS011;41245;45.384;20.390;2022-12-04T05:14:45;4.15;;;2.72;;
55364;SDS011;41245;45.384;20.390;2022-12-04T05:17:12;4.80;;;2.10;;
55364;SDS011;41245;45.384;20.390;2022-12-04T05:19:38;3.05;;;1.77;;
55364;SDS011;41245;45.384;20.390;2022-12-04T05:22:20;4.13;;;2.65;;
55364;SDS011;41245;45.384;20.390;2022-12-04T05:24:56;3.50;;;2.58;;
55364;SDS011;41245;45.384;20.390;2022-12-04T05:27:23;6.95;;;2.58;;
55364;SDS011;41245;45.384;20.390;2022-12-04T05:29:52;3.58;;;2.38;;
55364;SDS011;41245;45.384;20.390;2022-12-04T05:32:19;4.53;;;2.90;;
55364;SDS011;41245;45.384;20.390;2022-12-04T05:34:50;5.70;;;3.35;;
55364;SDS011;41245;45.384;20.390;2022-12-04T05:37:17;9.50;;;3.28;;
55364;SDS011;41245;45.384;20.390;2022-12-04T05:39:43;3.08;;;2.03;;
55364;SDS011;41245;45.384;20.390;2022-12-04T05:42:09;6.95;;;2.83;;
55364;SDS011;41245;45.384;20.390;2022-12-04T05:44:35;5.15;;;2.80;;
55364;SDS011;41245;45.384;20.390;2022-12-04T05:47:01;7.43;;;3.90;;
55364;SDS011;41245;45.384;20.390;2022-12-04T05:49:30;6.88;;;2.92;;
55364;SDS011;41245;45.384;20.390;2022-12-04T05:51:56;4.43;;;2.95;;
55364;SDS011;41245;45.384;20.390;2022-12-04T05:54:22;6.07;;;3.17;;
55364;SDS011;41245;45.384;20.390;2022-12-04T05:56:48;11.07;;;3.38;;
55364;SDS011;41245;45.384;20.390;2022-12-04T05:59:14;5.25;;;2.95;;
55364;SDS011;41245;45.384;20.390;2022-12-04T06:01:40;5.15;;;2.20;;
55364;SDS011;41245;45.384;20.390;2022-12-04T06:04:06;6.85;;;3.47;;
55364;SDS011;41245;45.384;20.390;2022-12-04T06:06:32;5.85;;;2.28;;
55364;SDS011;41245;45.384;20.390;2022-12-04T06:08:58;3.10;;;2.50;;
55364;SDS011;41245;45.384;20.390;2022-12-04T06:11:26;7.30;;;2.92;;
55364;SDS011;41245;45.384;20.390;2022-12-04T06:14:04;5.93;;;2.75;;
55364;SDS011;41245;45.384;20.390;2022-12-04T06:16:41;4.15;;;2.55;;
55364;SDS011;41245;45.384;20.390;2022-12-04T06:19:10;3.92;;;2.58;;
55364;SDS011;41245;45.384;20.390;2022-12-04T06:21:41;4.45;;;2.65;;
55364;SDS011;41245;45.384;20.390;2022-12-04T06:24:09;10.48;;;4.57;;
55364;SDS011;41245;45.384;20.390;2022-12-04T06:26:38;4.80;;;3.10;;
55364;SDS011;41245;45.384;20.390;2022-12-04T06:29:04;8.27;;;4.45;;
55364;SDS011;41245;45.384;20.390;2022-12-04T06:31:29;9.65;;;5.72;;
55364;SDS011;41245;45.384;20.390;2022-12-04T06:33:57;6.47;;;3.25;;
55364;SDS011;41245;45.384;20.390;2022-12-04T06:36:23;6.80;;;3.72;;
55364;SDS011;41245;45.384;20.390;2022-12-04T06:38:50;7.53;;;4.05;;
55364;SDS011;41245;45.384;20.390;2022-12-04T06:41:17;5.70;;;3.40;;
55364;SDS011;41245;45.384;20.390;2022-12-04T06:43:44;5.32;;;2.38;;
55364;SDS011;41245;45.384;20.390;2022-12-04T06:46:12;7.28;;;4.35;;
55364;SDS011;41245;45.384;20.390;2022-12-04T06:48:43;10.32;;;4.38;;
55364;SDS011;41245;45.384;20.390;2022-12-04T06:51:14;10.95;;;5.53;;
55364;SDS011;41245;45.384;20.390;2022-12-04T06:53:44;6.53;;;3.30;;
55364;SDS011;41245;45.384;20.390;2022-12-04T06:56:11;10.80;;;4.85;;
55364;SDS011;41245;45.384;20.390;2022-12-04T06:58:42;7.65;;;4.32;;
55364;SDS011;41245;45.384;20.390;2022-12-04T07:01:10;9.18;;;4.13;;
55364;SDS011;41245;45.384;20.390;2022-12-04T07:03:37;10.35;;;4.68;;
55364;SDS011;41245;45.384;20.390;2022-12-04T07:06:13;16.17;;;7.05;;
55364;SDS011;41245;45.384;20.390;2022-12-04T07:08:39;17.50;;;8.20;;
55364;SDS011;41245;45.384;20.390;2022-12-04T07:11:05;8.27;;;4.35;;
55364;SDS011;41245;45.384;20.390;2022-12-04T07:13:31;7.20;;;3.85;;
55364;SDS011;41245;45.384;20.390;2022-12-04T07:16:01;4.18;;;2.55;;
55364;SDS011;41245;45.384;20.390;2022-12-04T07:18:29;10.18;;;5.50;;
55364;SDS011;41245;45.384;20.390;2022-12-04T07:20:56;6.68;;;3.70;;
55364;SDS011;41245;45.384;20.390;2022-12-04T07:23:23;8.98;;;4.15;;
55364;SDS011;41245;45.384;20.390;2022-12-04T07:25:49;9.15;;;3.75;;
55364;SDS011;41245;45.384;20.390;2022-12-04T07:28:15;4.80;;;3.03;;
55364;SDS011;41245;45.384;20.390;2022-12-04T07:30:41;5.28;;;2.83;;
55364;SDS011;41245;45.384;20.390;2022-12-04T07:33:07;8.10;;;3.03;;
55364;SDS011;41245;45.384;20.390;2022-12-04T07:35:33;8.02;;;3.45;;
55364;SDS011;41245;45.384;20.390;2022-12-04T07:37:58;7.13;;;3.53;;
55364;SDS011;41245;45.384;20.390;2022-12-04T07:40:24;4.63;;;2.90;;
55364;SDS011;41245;45.384;20.390;2022-12-04T07:42:50;7.35;;;3.75;;
55364;SDS011;41245;45.384;20.390;2022-12-04T07:45:15;9.48;;;4.13;;
55364;SDS011;41245;45.384;20.390;2022-12-04T07:47:41;9.88;;;4.28;;
55364;SDS011;41245;45.384;20.390;2022-12-04T07:50:07;10.85;;;4.88;;
55364;SDS011;41245;45.384;20.390;2022-12-04T07:52:36;13.20;;;6.35;;
55364;SDS011;41245;45.384;20.390;2022-12-04T07:55:04;11.93;;;6.18;;
55364;SDS011;41245;45.384;20.390;2022-12-04T07:57:30;9.10;;;4.90;;
55364;SDS011;41245;45.384;20.390;2022-12-04T07:59:56;9.07;;;4.57;;
55364;SDS011;41245;45.384;20.390;2022-12-04T08:02:23;8.35;;;5.00;;
55364;SDS011;41245;45.384;20.390;2022-12-04T08:04:49;9.90;;;5.78;;
55364;SDS011;41245;45.384;20.390;2022-12-04T08:07:14;10.70;;;4.75;;
55364;SDS011;41245;45.384;20.390;2022-12-04T08:09:40;14.90;;;7.00;;
55364;SDS011;41245;45.384;20.390;2022-12-04T08:12:06;47.70;;;16.77;;
55364;SDS011;41245;45.384;20.390;2022-12-04T08:14:32;25.13;;;9.02;;
55364;SDS011;41245;45.384;20.390;2022-12-04T08:16:57;60.30;;;19.92;;
55364;SDS011;41245;45.384;20.390;2022-12-04T08:19:23;81.28;;;30.23;;
55364;SDS011;41245;45.384;20.390;2022-12-04T08:21:49;19.25;;;8.93;;
55364;SDS011;41245;45.384;20.390;2022-12-04T08:24:15;28.60;;;11.85;;
55364;SDS011;41245;45.384;20.390;2022-12-04T08:26:41;18.52;;;7.10;;
55364;SDS011;41245;45.384;20.390;2022-12-04T08:29:07;22.08;;;10.82;;
55364;SDS011;41245;45.384;20.390;2022-12-04T08:31:33;31.65;;;13.18;;
55364;SDS011;41245;45.384;20.390;2022-12-04T08:34:01;20.77;;;9.48;;
55364;SDS011;41245;45.384;20.390;2022-12-04T08:36:28;16.05;;;8.07;;
55364;SDS011;41245;45.384;20.390;2022-12-04T08:38:54;18.08;;;8.57;;
55364;SDS011;41245;45.384;20.390;2022-12-04T08:41:21;16.15;;;8.13;;
55364;SDS011;41245;45.384;20.390;2022-12-04T08:43:50;16.85;;;9.23;;
55364;SDS011;41245;45.384;20.390;2022-12-04T08:46:20;11.73;;;7.00;;
55364;SDS011;41245;45.384;20.390;2022-12-04T08:48:47;11.13;;;5.80;;
55364;SDS011;41245;45.384;20.390;2022-12-04T08:51:13;15.77;;;8.38;;
55364;SDS011;41245;45.384;20.390;2022-12-04T08:53:44;11.38;;;5.95;;
55364;SDS011;41245;45.384;20.390;2022-12-04T08:56:10;15.00;;;8.73;;
55364;SDS011;41245;45.384;20.390;2022-12-04T08:58:36;9.85;;;5.80;;
55364;SDS011;41245;45.384;20.390;2022-12-04T09:01:10;13.10;;;5.90;;
55364;SDS011;41245;45.384;20.390;2022-12-04T09:03:37;9.38;;;5.28;;
55364;SDS011;41245;45.384;20.390;2022-12-04T09:06:04;13.85;;;6.13;;
55364;SDS011;41245;45.384;20.390;2022-12-04T09:08:31;15.02;;;4.75;;
55364;SDS011;41245;45.384;20.390;2022-12-04T09:11:02;6.97;;;3.92;;
55364;SDS011;41245;45.384;20.390;2022-12-04T09:13:28;5.72;;;4.03;;
55364;SDS011;41245;45.384;20.390;2022-12-04T09:15:54;6.75;;;3.90;;
55364;SDS011;41245;45.384;20.390;2022-12-04T09:18:20;8.35;;;3.28;;
55364;SDS011;41245;45.384;20.390;2022-12-04T09:20:53;6.28;;;3.78;;
55364;SDS011;41245;45.384;20.390;2022-12-04T09:23:24;6.88;;;3.95;;
55364;SDS011;41245;45.384;20.390;2022-12-04T09:25:50;7.55;;;4.22;;
55364;SDS011;41245;45.384;20.390;2022-12-04T09:28:16;8.95;;;4.15;;
55364;SDS011;41245;45.384;20.390;2022-12-04T09:30:42;9.63;;;4.78;;
55364;SDS011;41245;45.384;20.390;2022-12-04T09:33:08;6.53;;;3.60;;
55364;SDS011;41245;45.384;20.390;2022-12-04T09:35:34;5.07;;;3.13;;
55364;SDS011;41245;45.384;20.390;2022-12-04T09:37:59;5.50;;;3.78;;
55364;SDS011;41245;45.384;20.390;2022-12-04T09:40:26;4.63;;;2.92;;
55364;SDS011;41245;45.384;20.390;2022-12-04T09:45:39;4.57;;;3.08;;
55364;SDS011;41245;45.384;20.390;2022-12-04T09:48:10;6.22;;;3.28;;
55364;SDS011;41245;45.384;20.390;2022-12-04T09:50:41;5.50;;;2.60;;
55364;SDS011;41245;45.384;20.390;2022-12-04T09:53:10;10.27;;;3.53;;
55364;SDS011;41245;45.384;20.390;2022-12-04T09:59:16;4.45;;;3.22;;
55364;SDS011;41245;45.384;20.390;2022-12-04T10:01:53;7.80;;;3.47;;
55364;SDS011;41245;45.384;20.390;2022-12-04T10:04:36;6.93;;;4.28;;
55364;SDS011;41245;45.384;20.390;2022-12-04T10:09:51;11.63;;;4.68;;
55364;SDS011;41245;45.384;20.390;2022-12-04T10:25:54;10.20;;;3.17;;
55364;SDS011;41245;45.384;20.390;2022-12-04T10:28:29;12.35;;;5.97;;
55364;SDS011;41245;45.384;20.390;2022-12-04T10:31:03;10.52;;;6.05;;
55364;SDS011;41245;45.384;20.390;2022-12-04T10:33:36;5.82;;;3.33;;
55364;SDS011;41245;45.384;20.390;2022-12-04T10:36:05;3.35;;;3.03;;
55364;SDS011;41245;45.384;20.390;2022-12-04T10:41:11;4.30;;;2.90;;
55364;SDS011;41245;45.384;20.390;2022-12-04T10:43:53;4.53;;;2.78;;
55364;SDS011;41245;45.384;20.390;2022-12-04T10:48:49;8.65;;;3.42;;
55364;SDS011;41245;45.384;20.390;2022-12-04T10:51:21;6.72;;;3.75;;
55364;SDS011;41245;45.384;20.390;2022-12-04T10:53:49;9.88;;;4.50;;
55364;SDS011;41245;45.384;20.390;2022-12-04T10:56:19;7.55;;;3.50;;
55364;SDS011;41245;45.384;20.390;2022-12-04T10:58:57;7.95;;;3.15;;
55364;SDS011;41245;45.384;20.390;2022-12-04T11:01:25;6.38;;;3.67;;
55364;SDS011;41245;45.384;20.390;2022-12-04T11:03:55;12.55;;;5.00;;
55364;SDS011;41245;45.384;20.390;2022-12-04T11:06:24;7.65;;;4.65;;
55364;SDS011;41245;45.384;20.390;2022-12-04T11:08:51;7.00;;;4.22;;
55364;SDS011;41245;45.384;20.390;2022-12-04T11:11:22;7.50;;;4.35;;
55364;SDS011;41245;45.384;20.390;2022-12-04T11:13:59;5.38;;;2.95;;
55364;SDS011;41245;45.384;20.390;2022-12-04T11:16:31;4.78;;;3.20;;
55364;SDS011;41245;45.384;20.390;2022-12-04T11:19:21;4.38;;;3.20;;
55364;SDS011;41245;45.384;20.390;2022-12-04T11:21:51;7.90;;;3.72;;
55364;SDS011;41245;45.384;20.390;2022-12-04T11:24:22;5.87;;;3.37;;
55364;SDS011;41245;45.384;20.390;2022-12-04T11:26:51;5.75;;;3.53;;
55364;SDS011;41245;45.384;20.390;2022-12-04T11:29:17;6.45;;;4.03;;
55364;SDS011;41245;45.384;20.390;2022-12-04T11:31:53;7.80;;;3.45;;
55364;SDS011;41245;45.384;20.390;2022-12-04T11:34:21;5.63;;;3.88;;
55364;SDS011;41245;45.384;20.390;2022-12-04T11:36:53;6.28;;;3.53;;
55364;SDS011;41245;45.384;20.390;2022-12-04T11:42:04;9.68;;;4.57;;
55364;SDS011;41245;45.384;20.390;2022-12-04T11:44:48;10.00;;;4.85;;
55364;SDS011;41245;45.384;20.390;2022-12-04T11:47:19;5.65;;;3.85;;
55364;SDS011;41245;45.384;20.390;2022-12-04T11:49:56;5.85;;;3.13;;
55364;SDS011;41245;45.384;20.390;2022-12-04T11:55:16;5.95;;;4.22;;
55364;SDS011;41245;45.384;20.390;2022-12-04T12:09:47;8.20;;;4.32;;
55364;SDS011;41245;45.384;20.390;2022-12-04T12:12:45;6.68;;;3.47;;
55364;SDS011;41245;45.384;20.390;2022-12-04T12:26:20;15.70;;;4.65;;
55364;SDS011;41245;45.384;20.390;2022-12-04T12:29:13;6.63;;;3.97;;
55364;SDS011;41245;45.384;20.390;2022-12-04T12:34:38;10.82;;;4.10;;
55364;SDS011;41245;45.384;20.390;2022-12-04T12:40:02;8.18;;;4.32;;
55364;SDS011;41245;45.384;20.390;2022-12-04T12:42:38;7.93;;;3.88;;
55364;SDS011;41245;45.384;20.390;2022-12-04T12:47:46;6.25;;;3.47;;
55364;SDS011;41245;45.384;20.390;2022-12-04T12:50:20;8.25;;;4.30;;
55364;SDS011;41245;45.384;20.390;2022-12-04T12:57:54;9.50;;;4.57;;
55364;SDS011;41245;45.384;20.390;2022-12-04T13:00:21;9.10;;;4.75;;
55364;SDS011;41245;45.384;20.390;2022-12-04T13:06:05;9.52;;;3.75;;
55364;SDS011;41245;45.384;20.390;2022-12-04T13:08:55;6.43;;;3.75;;
55364;SDS011;41245;45.384;20.390;2022-12-04T13:11:24;8.18;;;4.43;;
55364;SDS011;41245;45.384;20.390;2022-12-04T13:13:53;8.20;;;4.88;;
55364;SDS011;41245;45.384;20.390;2022-12-04T13:16:26;6.25;;;3.60;;
55364;SDS011;41245;45.384;20.390;2022-12-04T13:24:36;10.00;;;4.55;;
55364;SDS011;41245;45.384;20.390;2022-12-04T13:30:16;9.52;;;5.35;;
55364;SDS011;41245;45.384;20.390;2022-12-04T13:41:34;8.90;;;4.13;;
55364;SDS011;41245;45.384;20.390;2022-12-04T13:44:10;10.20;;;4.63;;
55364;SDS011;41245;45.384;20.390;2022-12-04T13:46:38;11.00;;;4.50;;
55364;SDS011;41245;45.384;20.390;2022-12-04T13:49:51;8.55;;;4.95;;
55364;SDS011;41245;45.384;20.390;2022-12-04T13:51:55;6.78;;;4.57;;
55364;SDS011;41245;45.384;20.390;2022-12-04T13:54:26;10.13;;;4.72;;
55364;SDS011;41245;45.384;20.390;2022-12-04T13:56:55;7.68;;;4.68;;
55364;SDS011;41245;45.384;20.390;2022-12-04T14:00:04;6.10;;;4.13;;
55364;SDS011;41245;45.384;20.390;2022-12-04T14:02:51;8.63;;;4.57;;
55364;SDS011;41245;45.384;20.390;2022-12-04T14:05:24;7.13;;;3.53;;
55364;SDS011;41245;45.384;20.390;2022-12-04T14:08:02;5.32;;;3.47;;
55364;SDS011;41245;45.384;20.390;2022-12-04T14:10:31;15.38;;;7.65;;
55364;SDS011;41245;45.384;20.390;2022-12-04T14:13:20;13.07;;;5.40;;
55364;SDS011;41245;45.384;20.390;2022-12-04T14:15:48;6.65;;;4.30;;
55364;SDS011;41245;45.384;20.390;2022-12-04T14:18:59;53.65;;;25.35;;
55364;SDS011;41245;45.384;20.390;2022-12-04T14:21:37;28.23;;;18.52;;
55364;SDS011;41245;45.384;20.390;2022-12-04T14:27:29;8.52;;;5.32;;
55364;SDS011;41245;45.384;20.390;2022-12-04T14:32:40;9.75;;;6.43;;
55364;SDS011;41245;45.384;20.390;2022-12-04T14:35:14;13.23;;;8.43;;
55364;SDS011;41245;45.384;20.390;2022-12-04T14:37:44;14.05;;;10.75;;
55364;SDS011;41245;45.384;20.390;2022-12-04T14:40:21;6.65;;;4.57;;
55364;SDS011;41245;45.384;20.390;2022-12-04T14:42:50;6.70;;;3.95;;
55364;SDS011;41245;45.384;20.390;2022-12-04T14:59:18;8.45;;;5.13;;
55364;SDS011;41245;45.384;20.390;2022-12-04T15:01:47;16.05;;;5.80;;
55364;SDS011;41245;45.384;20.390;2022-12-04T15:04:28;8.43;;;5.97;;
55364;SDS011;41245;45.384;20.390;2022-12-04T15:06:57;6.18;;;4.35;;
55364;SDS011;41245;45.384;20.390;2022-12-04T15:09:24;4.55;;;3.78;;
55364;SDS011;41245;45.384;20.390;2022-12-04T15:12:26;7.28;;;6.05;;
55364;SDS011;41245;45.384;20.390;2022-12-04T15:15:01;7.63;;;3.83;;
55364;SDS011;41245;45.384;20.390;2022-12-04T15:17:58;8.07;;;5.20;;
55364;SDS011;41245;45.384;20.390;2022-12-04T15:20:42;6.85;;;3.78;;
55364;SDS011;41245;45.384;20.390;2022-12-04T15:23:12;5.25;;;4.07;;
55364;SDS011;41245;45.384;20.390;2022-12-04T15:25:46;10.40;;;5.00;;
55364;SDS011;41245;45.384;20.390;2022-12-04T15:28:17;5.97;;;3.85;;
55364;SDS011;41245;45.384;20.390;2022-12-04T15:30:46;5.93;;;3.88;;
55364;SDS011;41245;45.384;20.390;2022-12-04T15:33:16;5.40;;;3.47;;
55364;SDS011;41245;45.384;20.390;2022-12-04T15:35:46;4.63;;;2.95;;
55364;SDS011;41245;45.384;20.390;2022-12-04T15:38:15;6.00;;;4.47;;
55364;SDS011;41245;45.384;20.390;2022-12-04T15:40:50;7.97;;;4.57;;
55364;SDS011;41245;45.384;20.390;2022-12-04T15:43:21;14.13;;;6.75;;
55364;SDS011;41245;45.384;20.390;2022-12-04T15:45:52;15.90;;;9.00;;
55364;SDS011;41245;45.384;20.390;2022-12-04T15:48:25;56.40;;;29.00;;
55364;SDS011;41245;45.384;20.390;2022-12-04T15:51:02;22.50;;;12.85;;
55364;SDS011;41245;45.384;20.390;2022-12-04T15:53:31;27.42;;;11.30;;
55364;SDS011;41245;45.384;20.390;2022-12-04T15:56:02;10.95;;;6.43;;
55364;SDS011;41245;45.384;20.390;2022-12-04T15:58:36;9.27;;;5.63;;
55364;SDS011;41245;45.384;20.390;2022-12-04T16:01:10;9.52;;;5.07;;
55364;SDS011;41245;45.384;20.390;2022-12-04T16:08:40;6.97;;;4.93;;
55364;SDS011;41245;45.384;20.390;2022-12-04T16:11:29;14.57;;;7.28;;
55364;SDS011;41245;45.384;20.390;2022-12-04T16:16:37;20.42;;;11.15;;
55364;SDS011;41245;45.384;20.390;2022-12-04T16:21:52;12.18;;;7.82;;
55364;SDS011;41245;45.384;20.390;2022-12-04T16:24:19;18.27;;;8.73;;
55364;SDS011;41245;45.384;20.390;2022-12-04T16:26:46;11.45;;;6.03;;
55364;SDS011;41245;45.384;20.390;2022-12-04T16:29:17;16.92;;;8.40;;
55364;SDS011;41245;45.384;20.390;2022-12-04T16:31:42;22.88;;;10.57;;
55364;SDS011;41245;45.384;20.390;2022-12-04T16:34:10;18.10;;;8.75;;
55364;SDS011;41245;45.384;20.390;2022-12-04T16:36:37;10.23;;;6.43;;
55364;SDS011;41245;45.384;20.390;2022-12-04T16:39:03;10.55;;;7.00;;
55364;SDS011;41245;45.384;20.390;2022-12-04T16:41:29;13.95;;;7.55;;
55364;SDS011;41245;45.384;20.390;2022-12-04T16:43:56;10.68;;;5.50;;
55364;SDS011;41245;45.384;20.390;2022-12-04T16:46:24;9.13;;;5.40;;
55364;SDS011;41245;45.384;20.390;2022-12-04T16:48:51;11.38;;;7.88;;
55364;SDS011;41245;45.384;20.390;2022-12-04T16:51:21;13.48;;;8.27;;
55364;SDS011;41245;45.384;20.390;2022-12-04T16:53:49;8.65;;;5.70;;
55364;SDS011;41245;45.384;20.390;2022-12-04T16:56:16;6.72;;;4.47;;
55364;SDS011;41245;45.384;20.390;2022-12-04T16:58:42;8.07;;;5.13;;
55364;SDS011;41245;45.384;20.390;2022-12-04T17:01:15;6.68;;;4.78;;
55364;SDS011;41245;45.384;20.390;2022-12-04T17:03:47;6.65;;;3.75;;
55364;SDS011;41245;45.384;20.390;2022-12-04T17:06:13;7.13;;;4.22;;
55364;SDS011;41245;45.384;20.390;2022-12-04T17:08:39;8.63;;;3.83;;
55364;SDS011;41245;45.384;20.390;2022-12-04T17:11:05;5.90;;;3.40;;
55364;SDS011;41245;45.384;20.390;2022-12-04T17:13:30;7.20;;;4.13;;
55364;SDS011;41245;45.384;20.390;2022-12-04T17:15:56;9.60;;;4.15;;
55364;SDS011;41245;45.384;20.390;2022-12-04T17:18:22;5.68;;;3.72;;
55364;SDS011;41245;45.384;20.390;2022-12-04T17:20:48;10.50;;;5.03;;
55364;SDS011;41245;45.384;20.390;2022-12-04T17:23:14;9.13;;;4.68;;
55364;SDS011;41245;45.384;20.390;2022-12-04T17:25:40;7.20;;;4.38;;
55364;SDS011;41245;45.384;20.390;2022-12-04T17:28:06;22.52;;;9.85;;